sensor_id;sensor_type;location;lat;lon;timestamp;P1;durP1;ratioP1;P2;durP2;ratioP2
25107;SDS011;13090;53.422;7.670;2022-10-17T00:02:59;7.55;;;3.13;;
25107;SDS011;13090;53.422;7.670;2022-10-17T00:08:02;10.57;;;3.72;;
25107;SDS011;13090;53.422;7.670;2022-10-17T00:13:04;8.35;;;3.40;;
25107;SDS011;13090;53.422;7.670;2022-10-17T00:18:09;8.25;;;2.97;;
25107;SDS011;13090;53.422;7.670;2022-10-17T00:23:12;7.05;;;2.65;;
25107;SDS011;13090;53.422;7.670;2022-10-17T00:28:14;7.13;;;2.78;;
25107;SDS011;13090;53.422;7.670;2022-10-17T00:33:19;6.68;;;2.65;;
25107;SDS011;13090;53.422;7.670;2022-10-17T00:38:21;6.65;;;2.63;;
25107;SDS011;13090;53.422;7.670;2022-10-17T00:43:24;11.30;;;2.53;;
25107;SDS011;13090;53.422;7.670;2022-10-17T00:48:28;8.95;;;2.75;;
25107;SDS011;13090;53.422;7.670;2022-10-17T00:53:31;6.13;;;2.58;;
25107;SDS011;13090;53.422;7.670;2022-10-17T00:58:38;9.60;;;2.40;;
25107;SDS011;13090;53.422;7.670;2022-10-17T01:03:42;6.47;;;2.42;;
25107;SDS011;13090;53.422;7.670;2022-10-17T01:08:45;6.30;;;2.22;;
25107;SDS011;13090;53.422;7.670;2022-10-17T01:13:50;8.45;;;2.28;;
25107;SDS011;13090;53.422;7.670;2022-10-17T01:18:59;5.30;;;2.30;;
25107;SDS011;13090;53.422;7.670;2022-10-17T01:24:20;7.70;;;2.30;;
25107;SDS011;13090;53.422;7.670;2022-10-17T01:35:26;7.22;;;2.50;;
25107;SDS011;13090;53.422;7.670;2022-10-17T01:40:39;6.38;;;2.20;;
25107;SDS011;13090;53.422;7.670;2022-10-17T01:45:46;6.22;;;1.90;;
25107;SDS011;13090;53.422;7.670;2022-10-17T01:55:59;7.28;;;2.30;;
25107;SDS011;13090;53.422;7.670;2022-10-17T02:01:06;5.17;;;2.60;;
25107;SDS011;13090;53.422;7.670;2022-10-17T02:06:13;4.93;;;2.30;;
25107;SDS011;13090;53.422;7.670;2022-10-17T02:11:17;8.10;;;2.45;;
25107;SDS011;13090;53.422;7.670;2022-10-17T02:16:21;6.45;;;2.97;;
25107;SDS011;13090;53.422;7.670;2022-10-17T02:21:38;4.22;;;2.78;;
25107;SDS011;13090;53.422;7.670;2022-10-17T02:26:46;8.73;;;2.83;;
25107;SDS011;13090;53.422;7.670;2022-10-17T02:31:57;5.95;;;3.40;;
25107;SDS011;13090;53.422;7.670;2022-10-17T02:37:04;9.38;;;3.20;;
25107;SDS011;13090;53.422;7.670;2022-10-17T02:42:10;6.07;;;2.70;;
25107;SDS011;13090;53.422;7.670;2022-10-17T02:47:16;4.43;;;2.63;;
25107;SDS011;13090;53.422;7.670;2022-10-17T02:52:25;9.75;;;3.40;;
25107;SDS011;13090;53.422;7.670;2022-10-17T02:57:32;9.15;;;3.72;;
25107;SDS011;13090;53.422;7.670;2022-10-17T03:02:39;3.90;;;3.00;;
25107;SDS011;13090;53.422;7.670;2022-10-17T03:07:44;7.03;;;3.50;;
25107;SDS011;13090;53.422;7.670;2022-10-17T03:12:47;7.88;;;3.30;;
25107;SDS011;13090;53.422;7.670;2022-10-17T03:17:49;6.20;;;3.40;;
25107;SDS011;13090;53.422;7.670;2022-10-17T03:22:53;6.78;;;3.85;;
25107;SDS011;13090;53.422;7.670;2022-10-17T03:27:56;6.97;;;3.40;;
25107;SDS011;13090;53.422;7.670;2022-10-17T03:33:00;5.30;;;3.22;;
25107;SDS011;13090;53.422;7.670;2022-10-17T03:38:03;6.15;;;3.30;;
25107;SDS011;13090;53.422;7.670;2022-10-17T03:43:06;6.60;;;3.08;;
25107;SDS011;13090;53.422;7.670;2022-10-17T03:48:09;5.43;;;3.60;;
25107;SDS011;13090;53.422;7.670;2022-10-17T03:53:15;7.60;;;3.67;;
25107;SDS011;13090;53.422;7.670;2022-10-17T03:58:18;6.15;;;3.60;;
25107;SDS011;13090;53.422;7.670;2022-10-17T04:03:21;6.43;;;3.88;;
25107;SDS011;13090;53.422;7.670;2022-10-17T04:08:25;7.38;;;4.00;;
25107;SDS011;13090;53.422;7.670;2022-10-17T04:13:28;6.45;;;4.15;;
25107;SDS011;13090;53.422;7.670;2022-10-17T04:18:31;6.63;;;4.45;;
25107;SDS011;13090;53.422;7.670;2022-10-17T04:23:35;6.60;;;4.43;;
25107;SDS011;13090;53.422;7.670;2022-10-17T04:28:37;4.47;;;3.88;;
25107;SDS011;13090;53.422;7.670;2022-10-17T04:33:40;6.22;;;4.35;;
25107;SDS011;13090;53.422;7.670;2022-10-17T04:38:44;4.28;;;3.88;;
25107;SDS011;13090;53.422;7.670;2022-10-17T04:43:47;5.90;;;4.32;;
25107;SDS011;13090;53.422;7.670;2022-10-17T04:48:52;4.68;;;3.67;;
25107;SDS011;13090;53.422;7.670;2022-10-17T04:53:56;4.10;;;3.70;;
25107;SDS011;13090;53.422;7.670;2022-10-17T04:58:59;4.85;;;4.00;;
25107;SDS011;13090;53.422;7.670;2022-10-17T05:04:02;5.53;;;4.18;;
25107;SDS011;13090;53.422;7.670;2022-10-17T05:09:06;4.13;;;3.72;;
25107;SDS011;13090;53.422;7.670;2022-10-17T05:14:08;7.72;;;4.20;;
25107;SDS011;13090;53.422;7.670;2022-10-17T05:19:11;6.88;;;4.45;;
25107;SDS011;13090;53.422;7.670;2022-10-17T05:24:15;9.07;;;4.28;;
25107;SDS011;13090;53.422;7.670;2022-10-17T05:29:18;5.28;;;3.90;;
25107;SDS011;13090;53.422;7.670;2022-10-17T05:34:21;7.22;;;4.10;;
25107;SDS011;13090;53.422;7.670;2022-10-17T05:39:25;4.78;;;4.32;;
25107;SDS011;13090;53.422;7.670;2022-10-17T05:44:27;7.28;;;5.63;;
25107;SDS011;13090;53.422;7.670;2022-10-17T05:49:30;6.75;;;5.95;;
25107;SDS011;13090;53.422;7.670;2022-10-17T05:54:48;7.47;;;6.50;;
25107;SDS011;13090;53.422;7.670;2022-10-17T05:59:50;11.18;;;6.78;;
25107;SDS011;13090;53.422;7.670;2022-10-17T06:04:53;4.68;;;4.22;;
25107;SDS011;13090;53.422;7.670;2022-10-17T06:10:03;5.22;;;4.03;;
25107;SDS011;13090;53.422;7.670;2022-10-17T06:15:07;6.20;;;5.13;;
25107;SDS011;13090;53.422;7.670;2022-10-17T06:20:10;10.02;;;4.95;;
25107;SDS011;13090;53.422;7.670;2022-10-17T06:25:15;10.60;;;4.85;;
25107;SDS011;13090;53.422;7.670;2022-10-17T06:30:17;5.05;;;4.55;;
25107;SDS011;13090;53.422;7.670;2022-10-17T06:35:20;8.40;;;5.60;;
25107;SDS011;13090;53.422;7.670;2022-10-17T06:40:24;4.65;;;4.22;;
25107;SDS011;13090;53.422;7.670;2022-10-17T06:45:27;8.77;;;5.38;;
25107;SDS011;13090;53.422;7.670;2022-10-17T06:50:30;7.93;;;5.50;;
25107;SDS011;13090;53.422;7.670;2022-10-17T06:55:34;7.13;;;4.13;;
25107;SDS011;13090;53.422;7.670;2022-10-17T07:00:39;8.38;;;5.00;;
25107;SDS011;13090;53.422;7.670;2022-10-17T07:05:42;6.28;;;5.32;;
25107;SDS011;13090;53.422;7.670;2022-10-17T07:10:53;9.82;;;5.28;;
25107;SDS011;13090;53.422;7.670;2022-10-17T07:15:57;6.20;;;5.20;;
25107;SDS011;13090;53.422;7.670;2022-10-17T07:21:03;7.25;;;5.20;;
25107;SDS011;13090;53.422;7.670;2022-10-17T07:26:08;8.07;;;5.00;;
25107;SDS011;13090;53.422;7.670;2022-10-17T07:31:13;12.50;;;5.30;;
25107;SDS011;13090;53.422;7.670;2022-10-17T07:36:17;7.57;;;4.82;;
25107;SDS011;13090;53.422;7.670;2022-10-17T07:41:22;5.75;;;4.75;;
25107;SDS011;13090;53.422;7.670;2022-10-17T07:46:24;6.00;;;4.20;;
25107;SDS011;13090;53.422;7.670;2022-10-17T07:51:27;6.68;;;5.05;;
25107;SDS011;13090;53.422;7.670;2022-10-17T07:56:31;7.20;;;4.95;;
25107;SDS011;13090;53.422;7.670;2022-10-17T08:01:33;6.35;;;4.50;;
25107;SDS011;13090;53.422;7.670;2022-10-17T08:06:36;9.20;;;4.90;;
25107;SDS011;13090;53.422;7.670;2022-10-17T08:11:41;7.00;;;4.20;;
25107;SDS011;13090;53.422;7.670;2022-10-17T08:16:44;8.90;;;4.38;;
25107;SDS011;13090;53.422;7.670;2022-10-17T08:21:50;7.18;;;3.88;;
25107;SDS011;13090;53.422;7.670;2022-10-17T08:26:54;7.10;;;4.45;;
25107;SDS011;13090;53.422;7.670;2022-10-17T08:31:57;6.60;;;4.50;;
25107;SDS011;13090;53.422;7.670;2022-10-17T08:37:02;6.25;;;4.40;;
25107;SDS011;13090;53.422;7.670;2022-10-17T08:42:11;11.38;;;4.00;;
25107;SDS011;13090;53.422;7.670;2022-10-17T08:47:32;4.65;;;3.85;;
25107;SDS011;13090;53.422;7.670;2022-10-17T08:52:38;6.85;;;4.18;;
25107;SDS011;13090;53.422;7.670;2022-10-17T08:57:46;5.70;;;4.40;;
25107;SDS011;13090;53.422;7.670;2022-10-17T09:02:53;4.28;;;3.88;;
25107;SDS011;13090;53.422;7.670;2022-10-17T09:08:18;6.97;;;4.38;;
25107;SDS011;13090;53.422;7.670;2022-10-17T09:13:33;6.22;;;4.32;;
25107;SDS011;13090;53.422;7.670;2022-10-17T09:18:45;5.43;;;3.70;;
25107;SDS011;13090;53.422;7.670;2022-10-17T09:23:55;8.68;;;4.05;;
25107;SDS011;13090;53.422;7.670;2022-10-17T09:29:14;6.03;;;4.10;;
25107;SDS011;13090;53.422;7.670;2022-10-17T09:34:21;7.20;;;4.20;;
25107;SDS011;13090;53.422;7.670;2022-10-17T09:44:33;5.63;;;4.20;;
25107;SDS011;13090;53.422;7.670;2022-10-17T09:49:41;9.38;;;4.20;;
25107;SDS011;13090;53.422;7.670;2022-10-17T09:54:46;6.05;;;4.22;;
25107;SDS011;13090;53.422;7.670;2022-10-17T09:59:59;6.55;;;3.95;;
25107;SDS011;13090;53.422;7.670;2022-10-17T10:05:03;6.03;;;3.83;;
25107;SDS011;13090;53.422;7.670;2022-10-17T10:10:22;5.53;;;3.78;;
25107;SDS011;13090;53.422;7.670;2022-10-17T10:15:31;5.45;;;3.75;;
25107;SDS011;13090;53.422;7.670;2022-10-17T10:20:36;10.30;;;4.70;;
25107;SDS011;13090;53.422;7.670;2022-10-17T10:25:48;4.07;;;3.67;;
25107;SDS011;13090;53.422;7.670;2022-10-17T10:30:56;5.40;;;4.30;;
25107;SDS011;13090;53.422;7.670;2022-10-17T10:36:02;6.63;;;3.88;;
25107;SDS011;13090;53.422;7.670;2022-10-17T10:41:06;7.30;;;4.25;;
25107;SDS011;13090;53.422;7.670;2022-10-17T10:46:17;5.80;;;4.35;;
25107;SDS011;13090;53.422;7.670;2022-10-17T10:51:26;9.05;;;4.95;;
25107;SDS011;13090;53.422;7.670;2022-10-17T10:56:32;7.00;;;4.30;;
25107;SDS011;13090;53.422;7.670;2022-10-17T11:01:41;12.63;;;5.10;;
25107;SDS011;13090;53.422;7.670;2022-10-17T11:06:49;11.38;;;5.03;;
25107;SDS011;13090;53.422;7.670;2022-10-17T11:12:02;8.93;;;5.88;;
25107;SDS011;13090;53.422;7.670;2022-10-17T11:17:14;10.10;;;4.97;;
25107;SDS011;13090;53.422;7.670;2022-10-17T11:22:24;7.25;;;4.63;;
25107;SDS011;13090;53.422;7.670;2022-10-17T11:27:31;8.20;;;4.47;;
25107;SDS011;13090;53.422;7.670;2022-10-17T11:32:37;7.68;;;5.22;;
25107;SDS011;13090;53.422;7.670;2022-10-17T11:37:46;6.25;;;4.55;;
25107;SDS011;13090;53.422;7.670;2022-10-17T11:42:55;5.47;;;4.38;;
25107;SDS011;13090;53.422;7.670;2022-10-17T11:48:03;7.55;;;4.72;;
25107;SDS011;13090;53.422;7.670;2022-10-17T11:53:11;6.75;;;4.63;;
25107;SDS011;13090;53.422;7.670;2022-10-17T11:58:21;8.52;;;5.10;;
25107;SDS011;13090;53.422;7.670;2022-10-17T12:03:38;7.47;;;4.57;;
25107;SDS011;13090;53.422;7.670;2022-10-17T12:08:48;6.93;;;4.90;;
25107;SDS011;13090;53.422;7.670;2022-10-17T12:13:55;8.40;;;5.00;;
25107;SDS011;13090;53.422;7.670;2022-10-17T12:24:35;4.47;;;4.05;;
25107;SDS011;13090;53.422;7.670;2022-10-17T12:29:41;5.45;;;4.60;;
25107;SDS011;13090;53.422;7.670;2022-10-17T12:34:51;8.57;;;5.05;;
25107;SDS011;13090;53.422;7.670;2022-10-17T12:39:55;7.22;;;4.88;;
25107;SDS011;13090;53.422;7.670;2022-10-17T12:44:58;7.13;;;5.05;;
25107;SDS011;13090;53.422;7.670;2022-10-17T12:50:02;9.10;;;5.20;;
25107;SDS011;13090;53.422;7.670;2022-10-17T12:55:25;6.63;;;5.35;;
25107;SDS011;13090;53.422;7.670;2022-10-17T13:00:33;5.47;;;4.15;;
25107;SDS011;13090;53.422;7.670;2022-10-17T13:05:53;6.72;;;4.55;;
25107;SDS011;13090;53.422;7.670;2022-10-17T13:10:58;5.68;;;4.82;;
25107;SDS011;13090;53.422;7.670;2022-10-17T13:16:03;6.50;;;4.20;;
25107;SDS011;13090;53.422;7.670;2022-10-17T13:21:12;7.43;;;4.95;;
25107;SDS011;13090;53.422;7.670;2022-10-17T13:26:18;8.85;;;6.78;;
25107;SDS011;13090;53.422;7.670;2022-10-17T13:31:26;6.95;;;3.97;;
25107;SDS011;13090;53.422;7.670;2022-10-17T13:36:32;6.28;;;3.30;;
25107;SDS011;13090;53.422;7.670;2022-10-17T13:41:36;4.05;;;3.20;;
25107;SDS011;13090;53.422;7.670;2022-10-17T13:46:40;4.88;;;3.63;;
25107;SDS011;13090;53.422;7.670;2022-10-17T13:51:49;4.22;;;2.78;;
25107;SDS011;13090;53.422;7.670;2022-10-17T13:56:54;4.17;;;2.73;;
25107;SDS011;13090;53.422;7.670;2022-10-17T14:01:57;4.18;;;2.95;;
25107;SDS011;13090;53.422;7.670;2022-10-17T14:07:04;7.20;;;2.65;;
25107;SDS011;13090;53.422;7.670;2022-10-17T14:12:09;4.23;;;3.03;;
25107;SDS011;13090;53.422;7.670;2022-10-17T14:17:14;3.15;;;2.78;;
25107;SDS011;13090;53.422;7.670;2022-10-17T14:22:26;4.40;;;2.92;;
25107;SDS011;13090;53.422;7.670;2022-10-17T14:27:31;4.97;;;3.17;;
25107;SDS011;13090;53.422;7.670;2022-10-17T14:32:35;5.53;;;3.25;;
25107;SDS011;13090;53.422;7.670;2022-10-17T14:37:40;3.10;;;2.80;;
25107;SDS011;13090;53.422;7.670;2022-10-17T14:42:45;5.73;;;2.83;;
25107;SDS011;13090;53.422;7.670;2022-10-17T14:47:49;2.58;;;2.10;;
25107;SDS011;13090;53.422;7.670;2022-10-17T14:53:02;2.13;;;1.55;;
25107;SDS011;13090;53.422;7.670;2022-10-17T14:58:15;2.80;;;1.80;;
25107;SDS011;13090;53.422;7.670;2022-10-17T15:03:19;3.22;;;1.75;;
25107;SDS011;13090;53.422;7.670;2022-10-17T15:08:23;2.22;;;1.70;;
25107;SDS011;13090;53.422;7.670;2022-10-17T15:13:26;2.03;;;1.60;;
25107;SDS011;13090;53.422;7.670;2022-10-17T15:18:34;3.95;;;2.00;;
25107;SDS011;13090;53.422;7.670;2022-10-17T15:23:40;2.13;;;1.75;;
25107;SDS011;13090;53.422;7.670;2022-10-17T15:28:43;2.42;;;2.05;;
25107;SDS011;13090;53.422;7.670;2022-10-17T15:33:47;4.78;;;3.65;;
25107;SDS011;13090;53.422;7.670;2022-10-17T15:38:52;5.68;;;2.20;;
25107;SDS011;13090;53.422;7.670;2022-10-17T15:43:56;2.70;;;2.50;;
25107;SDS011;13090;53.422;7.670;2022-10-17T15:49:01;6.25;;;3.00;;
25107;SDS011;13090;53.422;7.670;2022-10-17T15:54:06;2.75;;;2.03;;
25107;SDS011;13090;53.422;7.670;2022-10-17T15:59:11;3.15;;;2.50;;
25107;SDS011;13090;53.422;7.670;2022-10-17T16:04:20;2.70;;;2.50;;
25107;SDS011;13090;53.422;7.670;2022-10-17T16:09:24;2.90;;;2.20;;
25107;SDS011;13090;53.422;7.670;2022-10-17T16:14:30;2.30;;;1.85;;
25107;SDS011;13090;53.422;7.670;2022-10-17T16:19:33;2.97;;;1.73;;
25107;SDS011;13090;53.422;7.670;2022-10-17T16:24:37;2.83;;;2.20;;
25107;SDS011;13090;53.422;7.670;2022-10-17T16:29:39;2.35;;;1.90;;
25107;SDS011;13090;53.422;7.670;2022-10-17T16:34:42;3.00;;;2.35;;
25107;SDS011;13090;53.422;7.670;2022-10-17T16:39:46;3.97;;;2.13;;
25107;SDS011;13090;53.422;7.670;2022-10-17T16:44:49;3.42;;;1.95;;
25107;SDS011;13090;53.422;7.670;2022-10-17T16:55:03;2.55;;;2.08;;
25107;SDS011;13090;53.422;7.670;2022-10-17T17:00:07;2.47;;;1.92;;
25107;SDS011;13090;53.422;7.670;2022-10-17T17:05:10;1.83;;;1.52;;
25107;SDS011;13090;53.422;7.670;2022-10-17T17:10:15;2.63;;;2.42;;
25107;SDS011;13090;53.422;7.670;2022-10-17T17:15:18;2.30;;;2.10;;
25107;SDS011;13090;53.422;7.670;2022-10-17T17:20:20;8.35;;;3.80;;
25107;SDS011;13090;53.422;7.670;2022-10-17T17:25:24;3.63;;;2.65;;
25107;SDS011;13090;53.422;7.670;2022-10-17T17:30:27;2.10;;;1.90;;
25107;SDS011;13090;53.422;7.670;2022-10-17T17:35:30;2.10;;;1.85;;
25107;SDS011;13090;53.422;7.670;2022-10-17T17:40:35;3.45;;;2.35;;
25107;SDS011;13090;53.422;7.670;2022-10-17T17:45:38;5.03;;;2.92;;
25107;SDS011;13090;53.422;7.670;2022-10-17T17:50:42;2.50;;;2.30;;
25107;SDS011;13090;53.422;7.670;2022-10-17T17:55:47;4.10;;;2.50;;
25107;SDS011;13090;53.422;7.670;2022-10-17T18:01:07;2.00;;;1.80;;
25107;SDS011;13090;53.422;7.670;2022-10-17T18:06:15;4.82;;;1.80;;
25107;SDS011;13090;53.422;7.670;2022-10-17T18:11:21;3.88;;;2.22;;
25107;SDS011;13090;53.422;7.670;2022-10-17T18:16:24;4.65;;;1.88;;
25107;SDS011;13090;53.422;7.670;2022-10-17T18:21:27;4.28;;;2.92;;
25107;SDS011;13090;53.422;7.670;2022-10-17T18:26:32;3.60;;;2.28;;
25107;SDS011;13090;53.422;7.670;2022-10-17T18:31:37;4.18;;;2.97;;
25107;SDS011;13090;53.422;7.670;2022-10-17T18:36:40;6.35;;;3.50;;
25107;SDS011;13090;53.422;7.670;2022-10-17T18:41:50;5.72;;;3.22;;
25107;SDS011;13090;53.422;7.670;2022-10-17T18:46:55;2.97;;;2.67;;
25107;SDS011;13090;53.422;7.670;2022-10-17T18:52:04;4.68;;;3.42;;
25107;SDS011;13090;53.422;7.670;2022-10-17T18:57:08;3.78;;;3.20;;
25107;SDS011;13090;53.422;7.670;2022-10-17T19:02:11;6.03;;;3.22;;
25107;SDS011;13090;53.422;7.670;2022-10-17T19:07:14;3.50;;;3.05;;
25107;SDS011;13090;53.422;7.670;2022-10-17T19:12:18;3.47;;;2.78;;
25107;SDS011;13090;53.422;7.670;2022-10-17T19:17:22;4.38;;;3.30;;
25107;SDS011;13090;53.422;7.670;2022-10-17T19:32:58;5.82;;;4.22;;
25107;SDS011;13090;53.422;7.670;2022-10-17T19:38:02;5.75;;;3.80;;
25107;SDS011;13090;53.422;7.670;2022-10-17T19:43:06;5.55;;;4.20;;
25107;SDS011;13090;53.422;7.670;2022-10-17T19:48:09;6.18;;;4.28;;
25107;SDS011;13090;53.422;7.670;2022-10-17T19:53:12;14.63;;;5.38;;
25107;SDS011;13090;53.422;7.670;2022-10-17T19:58:17;7.50;;;4.68;;
25107;SDS011;13090;53.422;7.670;2022-10-17T20:03:20;6.97;;;4.53;;
25107;SDS011;13090;53.422;7.670;2022-10-17T20:08:23;5.18;;;4.53;;
25107;SDS011;13090;53.422;7.670;2022-10-17T20:13:28;8.45;;;5.38;;
25107;SDS011;13090;53.422;7.670;2022-10-17T20:18:32;7.95;;;5.72;;
25107;SDS011;13090;53.422;7.670;2022-10-17T20:23:36;6.53;;;5.78;;
25107;SDS011;13090;53.422;7.670;2022-10-17T20:28:41;6.43;;;5.25;;
25107;SDS011;13090;53.422;7.670;2022-10-17T20:33:45;7.03;;;5.68;;
25107;SDS011;13090;53.422;7.670;2022-10-17T20:38:51;8.40;;;5.90;;
25107;SDS011;13090;53.422;7.670;2022-10-17T20:43:55;9.82;;;6.78;;
25107;SDS011;13090;53.422;7.670;2022-10-17T20:48:58;10.40;;;7.03;;
25107;SDS011;13090;53.422;7.670;2022-10-17T20:54:01;7.45;;;6.25;;
25107;SDS011;13090;53.422;7.670;2022-10-17T20:59:07;8.30;;;6.50;;
25107;SDS011;13090;53.422;7.670;2022-10-17T21:04:12;7.15;;;6.15;;
25107;SDS011;13090;53.422;7.670;2022-10-17T21:09:35;9.45;;;6.18;;
25107;SDS011;13090;53.422;7.670;2022-10-17T21:14:39;9.23;;;7.68;;
25107;SDS011;13090;53.422;7.670;2022-10-17T21:19:41;13.38;;;7.97;;
25107;SDS011;13090;53.422;7.670;2022-10-17T21:24:44;11.20;;;8.52;;
25107;SDS011;13090;53.422;7.670;2022-10-17T21:29:48;11.68;;;8.15;;
25107;SDS011;13090;53.422;7.670;2022-10-17T21:34:51;10.95;;;8.23;;
25107;SDS011;13090;53.422;7.670;2022-10-17T21:39:53;10.05;;;8.02;;
25107;SDS011;13090;53.422;7.670;2022-10-17T21:44:57;12.65;;;8.18;;
25107;SDS011;13090;53.422;7.670;2022-10-17T21:50:00;9.90;;;8.13;;
25107;SDS011;13090;53.422;7.670;2022-10-17T21:55:03;17.45;;;8.55;;
25107;SDS011;13090;53.422;7.670;2022-10-17T22:00:08;11.18;;;8.30;;
25107;SDS011;13090;53.422;7.670;2022-10-17T22:05:12;12.18;;;8.48;;
25107;SDS011;13090;53.422;7.670;2022-10-17T22:10:15;11.57;;;8.70;;
25107;SDS011;13090;53.422;7.670;2022-10-17T22:15:19;14.20;;;9.88;;
25107;SDS011;13090;53.422;7.670;2022-10-17T22:20:22;12.32;;;9.40;;
25107;SDS011;13090;53.422;7.670;2022-10-17T22:25:24;10.77;;;9.10;;
25107;SDS011;13090;53.422;7.670;2022-10-17T22:30:29;13.30;;;8.70;;
25107;SDS011;13090;53.422;7.670;2022-10-17T22:35:31;14.50;;;9.15;;
25107;SDS011;13090;53.422;7.670;2022-10-17T22:40:34;16.52;;;9.73;;
25107;SDS011;13090;53.422;7.670;2022-10-17T22:45:38;11.80;;;9.85;;
25107;SDS011;13090;53.422;7.670;2022-10-17T22:50:41;12.50;;;8.85;;
25107;SDS011;13090;53.422;7.670;2022-10-17T22:55:48;14.98;;;10.60;;
25107;SDS011;13090;53.422;7.670;2022-10-17T23:00:53;12.70;;;9.57;;
25107;SDS011;13090;53.422;7.670;2022-10-17T23:05:56;15.27;;;10.70;;
25107;SDS011;13090;53.422;7.670;2022-10-17T23:10:59;12.68;;;9.57;;
25107;SDS011;13090;53.422;7.670;2022-10-17T23:16:03;13.13;;;10.70;;
25107;SDS011;13090;53.422;7.670;2022-10-17T23:21:06;17.00;;;10.93;;
25107;SDS011;13090;53.422;7.670;2022-10-17T23:26:10;16.08;;;10.63;;
25107;SDS011;13090;53.422;7.670;2022-10-17T23:31:16;17.88;;;10.07;;
25107;SDS011;13090;53.422;7.670;2022-10-17T23:36:20;14.43;;;10.52;;
25107;SDS011;13090;53.422;7.670;2022-10-17T23:41:23;18.95;;;10.68;;
25107;SDS011;13090;53.422;7.670;2022-10-17T23:46:27;16.90;;;10.13;;
25107;SDS011;13090;53.422;7.670;2022-10-17T23:51:30;15.38;;;10.45;;
25107;SDS011;13090;53.422;7.670;2022-10-17T23:56:32;15.93;;;10.13;;
